KSFB/SFB METAR and TAF weather

Enter ICAO airport designator
Station Type Date Time Source
KSFB METAR 2019/04/21 21:53 UTC NOAA

KSFB 212153Z 24008KT 10SM CLR 24/05 A3009 RMK AO2 SLP187 T02390050


Station Type Date Time Source
KSFB Decoded METAR 2019/04/21 21:53 UTC NOAA

ORLANDO SANFORD AIRPORT, FL, United States (KSFB) 28-47N 081-15W
Apr 21, 2019 - 05:53 PM EDT / 2019.04.21 2153 UTC
Wind: from the WSW (240 degrees) at 9 MPH (8 KT):0
Visibility: 10 mile(s):0
Sky conditions: clear
Temperature: 75.0 F (23.9 C)
Dew Point: 41.0 F (5.0 C)
Relative Humidity: 29%
Pressure (altimeter): 30.09 in. Hg (1018 hPa)
ob: KSFB 212153Z 24008KT 10SM CLR 24/05 A3009 RMK AO2 SLP187 T02390050
cycle: 22

Station Type Date Time Source
KSFB TAF 2019/04/21 18:24 UTC NOAA

TAF KSFB 211721Z 2118/2218 32008KT P6SM SKC
FM212300 05008KT P6SM SKC
FM220100 VRB03KT P6SM SKC
FM221500 04006KT P6SM SKC

Example: see airport list